首页
METAR-TAF:

METAR-TAF

机场 :

Yellowstone Airport

West Yellowstone, 蒙大拿州, 美国

纬度: 44-39N, 经度: 111-06W, 海拔: 2031米

当前天气观测

该预报发布于35分钟前的03:05 UTC
风速8节,风向西转西南
温度 -5°C
湿度 86%
气压 1020 hPa
能見度: 16.1公里
阴天层高于6500英尺

METAR: KWYS 280305Z AUTO 24008KT 10SM OVC065 M05/M07 A3013 RMK AO2

时间: 20:40 (03:40 UTC)

预报

该预报发布于1小时和58分钟前的01:42 UTC
预报有效从28日的 02点(UTC)到 28日的 24点(UTC)
风速11节,风向西南
能見度: 10公里
散云层高于700英尺
多云层高于4000英尺
短暂存在
从 28日的 06点(UTC)到 28日的 10点(UTC)
能見度: 4.8公里
多云层高于700英尺
轻雾
从 28日的 1000点(UTC)
风速3节,风向多变
能見度: 10公里
散云层高于700英尺
多云层高于1500英尺
几率 30%
从 28日的 13点(UTC)到 28日的 17点(UTC)
能見度: 6.4公里
多云层高于700英尺
小雪
从 28日的 1700点(UTC)
风速4节,风向多变
能見度: 4.8公里
散云层高于100英尺
阴天层高于1000英尺
小雪

TAF: KWYS 280142Z 2802/2824 22011KT P6SM SCT007 BKN040 TEMPO 2806/2810 3SM BR BKN007 FM281000 VRB03KT P6SM SCT007 BKN015 PROB30 2813/2817 4SM -SN BKN007 FM281700 VRB04KT 3SM -SN SCT001 OVC010

超过4000个机场的气象观测和天气预报(METAR&TAF报告)。

可查询的气象台以黄色和红色小点在地图上表示。

将鼠标移到小点上方,可查看气象台名称。

然后点击查看天气观测和预报。

如需切换地图:点击带黑十字的绿色按钮放大地图;点击带横线的绿色按钮缩小地图;或者点击绿色箭头查看邻近地区的地图。


METAR-TAF: